sensor_id;sensor_type;location;lat;lon;timestamp;P1;durP1;ratioP1;P2;durP2;ratioP2
4186;SDS011;2107;52.306;10.484;2023-04-29T00:01:05;0.00;;;0.00;;
4186;SDS011;2107;52.306;10.484;2023-04-29T00:03:34;0.00;;;0.00;;
4186;SDS011;2107;52.306;10.484;2023-04-29T00:06:01;0.00;;;0.00;;
4186;SDS011;2107;52.306;10.484;2023-04-29T00:08:27;0.00;;;0.00;;
4186;SDS011;2107;52.306;10.484;2023-04-29T00:10:54;0.00;;;0.00;;
4186;SDS011;2107;52.306;10.484;2023-04-29T00:13:21;0.00;;;0.00;;
4186;SDS011;2107;52.306;10.484;2023-04-29T00:15:48;0.00;;;0.00;;
4186;SDS011;2107;52.306;10.484;2023-04-29T00:18:15;0.00;;;0.00;;
4186;SDS011;2107;52.306;10.484;2023-04-29T00:20:43;0.00;;;0.00;;
4186;SDS011;2107;52.306;10.484;2023-04-29T00:23:10;0.00;;;0.00;;
4186;SDS011;2107;52.306;10.484;2023-04-29T00:25:36;0.00;;;0.00;;
4186;SDS011;2107;52.306;10.484;2023-04-29T00:28:03;0.00;;;0.00;;
4186;SDS011;2107;52.306;10.484;2023-04-29T00:30:30;0.00;;;0.00;;
4186;SDS011;2107;52.306;10.484;2023-04-29T00:32:58;0.00;;;0.00;;
4186;SDS011;2107;52.306;10.484;2023-04-29T00:35:25;0.10;;;0.10;;
4186;SDS011;2107;52.306;10.484;2023-04-29T00:37:53;0.10;;;0.10;;
4186;SDS011;2107;52.306;10.484;2023-04-29T00:40:20;0.00;;;0.00;;
4186;SDS011;2107;52.306;10.484;2023-04-29T00:42:47;0.10;;;0.10;;
4186;SDS011;2107;52.306;10.484;2023-04-29T00:45:14;0.10;;;0.10;;
4186;SDS011;2107;52.306;10.484;2023-04-29T00:47:41;0.10;;;0.10;;
4186;SDS011;2107;52.306;10.484;2023-04-29T00:50:08;0.10;;;0.10;;
4186;SDS011;2107;52.306;10.484;2023-04-29T00:52:35;0.10;;;0.10;;
4186;SDS011;2107;52.306;10.484;2023-04-29T00:55:05;0.10;;;0.10;;
4186;SDS011;2107;52.306;10.484;2023-04-29T00:57:33;0.20;;;0.20;;
4186;SDS011;2107;52.306;10.484;2023-04-29T01:00:00;0.20;;;0.20;;
4186;SDS011;2107;52.306;10.484;2023-04-29T01:02:27;0.10;;;0.10;;
4186;SDS011;2107;52.306;10.484;2023-04-29T01:04:54;0.20;;;0.20;;
4186;SDS011;2107;52.306;10.484;2023-04-29T01:07:22;0.20;;;0.20;;
4186;SDS011;2107;52.306;10.484;2023-04-29T01:10:00;0.20;;;0.20;;
4186;SDS011;2107;52.306;10.484;2023-04-29T01:12:36;0.20;;;0.20;;
4186;SDS011;2107;52.306;10.484;2023-04-29T01:15:08;0.20;;;0.20;;
4186;SDS011;2107;52.306;10.484;2023-04-29T01:17:43;0.10;;;0.10;;
4186;SDS011;2107;52.306;10.484;2023-04-29T01:20:15;0.20;;;0.20;;
4186;SDS011;2107;52.306;10.484;2023-04-29T01:22:43;0.30;;;0.30;;
4186;SDS011;2107;52.306;10.484;2023-04-29T01:25:11;0.20;;;0.20;;
4186;SDS011;2107;52.306;10.484;2023-04-29T01:27:39;0.30;;;0.30;;
4186;SDS011;2107;52.306;10.484;2023-04-29T01:30:15;0.20;;;0.20;;
4186;SDS011;2107;52.306;10.484;2023-04-29T01:32:51;0.30;;;0.30;;
4186;SDS011;2107;52.306;10.484;2023-04-29T01:35:33;0.30;;;0.30;;
4186;SDS011;2107;52.306;10.484;2023-04-29T01:38:12;0.37;;;0.37;;
4186;SDS011;2107;52.306;10.484;2023-04-29T01:40:46;0.30;;;0.30;;
4186;SDS011;2107;52.306;10.484;2023-04-29T01:43:21;0.30;;;0.30;;
4186;SDS011;2107;52.306;10.484;2023-04-29T01:45:51;0.37;;;0.37;;
4186;SDS011;2107;52.306;10.484;2023-04-29T01:48:20;0.50;;;0.50;;
4186;SDS011;2107;52.306;10.484;2023-04-29T01:50:47;0.40;;;0.40;;
4186;SDS011;2107;52.306;10.484;2023-04-29T01:53:14;0.30;;;0.30;;
4186;SDS011;2107;52.306;10.484;2023-04-29T01:55:41;0.30;;;0.30;;
4186;SDS011;2107;52.306;10.484;2023-04-29T01:58:10;0.30;;;0.30;;
4186;SDS011;2107;52.306;10.484;2023-04-29T02:00:37;0.30;;;0.30;;
4186;SDS011;2107;52.306;10.484;2023-04-29T02:03:03;0.30;;;0.30;;
4186;SDS011;2107;52.306;10.484;2023-04-29T02:05:30;0.27;;;0.27;;
4186;SDS011;2107;52.306;10.484;2023-04-29T02:07:58;0.20;;;0.20;;
4186;SDS011;2107;52.306;10.484;2023-04-29T02:10:25;0.20;;;0.20;;
4186;SDS011;2107;52.306;10.484;2023-04-29T02:12:52;0.20;;;0.20;;
4186;SDS011;2107;52.306;10.484;2023-04-29T02:15:20;0.20;;;0.20;;
4186;SDS011;2107;52.306;10.484;2023-04-29T02:17:46;0.30;;;0.30;;
4186;SDS011;2107;52.306;10.484;2023-04-29T02:20:13;0.40;;;0.40;;
4186;SDS011;2107;52.306;10.484;2023-04-29T02:22:41;0.20;;;0.20;;
4186;SDS011;2107;52.306;10.484;2023-04-29T02:25:08;0.20;;;0.20;;
4186;SDS011;2107;52.306;10.484;2023-04-29T02:27:35;0.40;;;0.40;;
4186;SDS011;2107;52.306;10.484;2023-04-29T02:30:02;0.20;;;0.20;;
4186;SDS011;2107;52.306;10.484;2023-04-29T02:32:31;0.20;;;0.20;;
4186;SDS011;2107;52.306;10.484;2023-04-29T02:34:58;0.20;;;0.20;;
4186;SDS011;2107;52.306;10.484;2023-04-29T02:37:25;0.20;;;0.20;;
4186;SDS011;2107;52.306;10.484;2023-04-29T02:39:52;0.10;;;0.10;;
4186;SDS011;2107;52.306;10.484;2023-04-29T02:42:19;0.10;;;0.10;;
4186;SDS011;2107;52.306;10.484;2023-04-29T02:44:46;0.10;;;0.10;;
4186;SDS011;2107;52.306;10.484;2023-04-29T02:47:13;0.10;;;0.10;;
4186;SDS011;2107;52.306;10.484;2023-04-29T02:49:41;0.10;;;0.10;;
4186;SDS011;2107;52.306;10.484;2023-04-29T02:52:08;0.10;;;0.10;;
4186;SDS011;2107;52.306;10.484;2023-04-29T02:54:35;0.10;;;0.10;;
4186;SDS011;2107;52.306;10.484;2023-04-29T02:57:02;0.10;;;0.10;;
4186;SDS011;2107;52.306;10.484;2023-04-29T02:59:29;0.10;;;0.10;;
4186;SDS011;2107;52.306;10.484;2023-04-29T03:01:55;0.00;;;0.00;;
4186;SDS011;2107;52.306;10.484;2023-04-29T03:04:22;0.00;;;0.00;;
4186;SDS011;2107;52.306;10.484;2023-04-29T03:06:50;0.00;;;0.00;;
4186;SDS011;2107;52.306;10.484;2023-04-29T03:09:17;0.07;;;0.07;;
4186;SDS011;2107;52.306;10.484;2023-04-29T03:11:45;0.10;;;0.10;;
4186;SDS011;2107;52.306;10.484;2023-04-29T03:14:12;0.10;;;0.10;;
4186;SDS011;2107;52.306;10.484;2023-04-29T03:16:39;0.00;;;0.00;;
4186;SDS011;2107;52.306;10.484;2023-04-29T03:19:06;0.00;;;0.00;;
4186;SDS011;2107;52.306;10.484;2023-04-29T03:21:34;0.10;;;0.10;;
4186;SDS011;2107;52.306;10.484;2023-04-29T03:24:02;0.10;;;0.10;;
4186;SDS011;2107;52.306;10.484;2023-04-29T03:26:29;0.03;;;0.03;;
4186;SDS011;2107;52.306;10.484;2023-04-29T03:28:56;0.00;;;0.00;;
4186;SDS011;2107;52.306;10.484;2023-04-29T03:31:23;0.00;;;0.00;;
4186;SDS011;2107;52.306;10.484;2023-04-29T03:33:51;0.00;;;0.00;;
4186;SDS011;2107;52.306;10.484;2023-04-29T03:36:18;0.00;;;0.00;;
4186;SDS011;2107;52.306;10.484;2023-04-29T03:38:45;0.10;;;0.10;;
4186;SDS011;2107;52.306;10.484;2023-04-29T03:41:13;0.00;;;0.00;;
4186;SDS011;2107;52.306;10.484;2023-04-29T03:43:40;0.10;;;0.10;;
4186;SDS011;2107;52.306;10.484;2023-04-29T03:46:08;0.00;;;0.00;;
4186;SDS011;2107;52.306;10.484;2023-04-29T03:48:35;0.00;;;0.00;;
4186;SDS011;2107;52.306;10.484;2023-04-29T03:51:02;0.00;;;0.00;;
4186;SDS011;2107;52.306;10.484;2023-04-29T03:53:29;0.00;;;0.00;;
4186;SDS011;2107;52.306;10.484;2023-04-29T03:55:56;0.00;;;0.00;;
4186;SDS011;2107;52.306;10.484;2023-04-29T03:58:25;0.00;;;0.00;;
4186;SDS011;2107;52.306;10.484;2023-04-29T04:00:51;0.00;;;0.00;;
4186;SDS011;2107;52.306;10.484;2023-04-29T04:03:18;0.00;;;0.00;;
4186;SDS011;2107;52.306;10.484;2023-04-29T04:05:46;0.00;;;0.00;;
4186;SDS011;2107;52.306;10.484;2023-04-29T04:08:13;0.00;;;0.00;;
4186;SDS011;2107;52.306;10.484;2023-04-29T04:10:40;0.00;;;0.00;;
4186;SDS011;2107;52.306;10.484;2023-04-29T04:13:07;0.00;;;0.00;;
4186;SDS011;2107;52.306;10.484;2023-04-29T04:15:35;0.00;;;0.00;;
4186;SDS011;2107;52.306;10.484;2023-04-29T04:18:02;0.00;;;0.00;;
4186;SDS011;2107;52.306;10.484;2023-04-29T04:20:29;0.00;;;0.00;;
4186;SDS011;2107;52.306;10.484;2023-04-29T04:22:56;0.00;;;0.00;;
4186;SDS011;2107;52.306;10.484;2023-04-29T04:25:22;0.00;;;0.00;;
4186;SDS011;2107;52.306;10.484;2023-04-29T04:27:49;0.00;;;0.00;;
4186;SDS011;2107;52.306;10.484;2023-04-29T04:30:16;0.10;;;0.10;;
4186;SDS011;2107;52.306;10.484;2023-04-29T04:32:44;0.00;;;0.00;;
4186;SDS011;2107;52.306;10.484;2023-04-29T04:35:11;0.00;;;0.00;;
4186;SDS011;2107;52.306;10.484;2023-04-29T04:37:38;0.00;;;0.00;;
4186;SDS011;2107;52.306;10.484;2023-04-29T04:40:05;0.00;;;0.00;;
4186;SDS011;2107;52.306;10.484;2023-04-29T04:42:35;0.00;;;0.00;;
4186;SDS011;2107;52.306;10.484;2023-04-29T04:45:02;0.00;;;0.00;;
4186;SDS011;2107;52.306;10.484;2023-04-29T04:47:29;0.10;;;0.10;;
4186;SDS011;2107;52.306;10.484;2023-04-29T04:49:57;0.00;;;0.00;;
4186;SDS011;2107;52.306;10.484;2023-04-29T04:52:24;0.00;;;0.00;;
4186;SDS011;2107;52.306;10.484;2023-04-29T04:54:51;0.00;;;0.00;;
4186;SDS011;2107;52.306;10.484;2023-04-29T04:57:17;0.00;;;0.00;;
4186;SDS011;2107;52.306;10.484;2023-04-29T04:59:44;0.00;;;0.00;;
4186;SDS011;2107;52.306;10.484;2023-04-29T05:02:11;0.00;;;0.00;;
4186;SDS011;2107;52.306;10.484;2023-04-29T05:04:38;0.00;;;0.00;;
4186;SDS011;2107;52.306;10.484;2023-04-29T05:07:06;0.00;;;0.00;;
4186;SDS011;2107;52.306;10.484;2023-04-29T05:09:33;0.00;;;0.00;;
4186;SDS011;2107;52.306;10.484;2023-04-29T05:12:00;0.00;;;0.00;;
4186;SDS011;2107;52.306;10.484;2023-04-29T05:14:27;0.00;;;0.00;;
4186;SDS011;2107;52.306;10.484;2023-04-29T05:16:57;0.00;;;0.00;;
4186;SDS011;2107;52.306;10.484;2023-04-29T05:19:24;0.00;;;0.00;;
4186;SDS011;2107;52.306;10.484;2023-04-29T05:21:51;0.00;;;0.00;;
4186;SDS011;2107;52.306;10.484;2023-04-29T05:24:19;0.10;;;0.10;;
4186;SDS011;2107;52.306;10.484;2023-04-29T05:26:46;0.00;;;0.00;;
4186;SDS011;2107;52.306;10.484;2023-04-29T05:29:15;0.00;;;0.00;;
4186;SDS011;2107;52.306;10.484;2023-04-29T05:31:42;0.00;;;0.00;;
4186;SDS011;2107;52.306;10.484;2023-04-29T05:34:09;0.10;;;0.10;;
4186;SDS011;2107;52.306;10.484;2023-04-29T05:36:36;0.10;;;0.10;;
4186;SDS011;2107;52.306;10.484;2023-04-29T05:39:03;0.10;;;0.10;;
4186;SDS011;2107;52.306;10.484;2023-04-29T05:41:31;0.10;;;0.10;;
4186;SDS011;2107;52.306;10.484;2023-04-29T05:43:58;0.10;;;0.10;;
4186;SDS011;2107;52.306;10.484;2023-04-29T05:46:24;0.10;;;0.10;;
4186;SDS011;2107;52.306;10.484;2023-04-29T05:48:51;0.00;;;0.00;;
4186;SDS011;2107;52.306;10.484;2023-04-29T05:51:18;0.00;;;0.00;;
4186;SDS011;2107;52.306;10.484;2023-04-29T05:53:45;0.10;;;0.10;;
4186;SDS011;2107;52.306;10.484;2023-04-29T05:56:12;0.10;;;0.10;;
4186;SDS011;2107;52.306;10.484;2023-04-29T05:58:40;0.10;;;0.10;;
4186;SDS011;2107;52.306;10.484;2023-04-29T06:01:07;0.10;;;0.10;;
4186;SDS011;2107;52.306;10.484;2023-04-29T06:03:34;0.10;;;0.10;;
4186;SDS011;2107;52.306;10.484;2023-04-29T06:06:01;0.10;;;0.10;;
4186;SDS011;2107;52.306;10.484;2023-04-29T06:08:28;0.10;;;0.10;;
4186;SDS011;2107;52.306;10.484;2023-04-29T06:10:55;0.10;;;0.10;;
4186;SDS011;2107;52.306;10.484;2023-04-29T06:13:22;0.13;;;0.13;;
4186;SDS011;2107;52.306;10.484;2023-04-29T06:15:50;0.20;;;0.20;;
4186;SDS011;2107;52.306;10.484;2023-04-29T06:18:17;0.20;;;0.20;;
4186;SDS011;2107;52.306;10.484;2023-04-29T06:20:44;0.30;;;0.30;;
4186;SDS011;2107;52.306;10.484;2023-04-29T06:23:11;0.30;;;0.30;;
4186;SDS011;2107;52.306;10.484;2023-04-29T06:25:38;0.30;;;0.30;;
4186;SDS011;2107;52.306;10.484;2023-04-29T06:28:05;0.50;;;0.50;;
4186;SDS011;2107;52.306;10.484;2023-04-29T06:30:32;0.60;;;0.60;;
4186;SDS011;2107;52.306;10.484;2023-04-29T06:33:00;0.70;;;0.70;;
4186;SDS011;2107;52.306;10.484;2023-04-29T06:35:27;0.87;;;0.87;;
4186;SDS011;2107;52.306;10.484;2023-04-29T06:37:54;1.07;;;1.07;;
4186;SDS011;2107;52.306;10.484;2023-04-29T06:40:21;1.20;;;1.20;;
4186;SDS011;2107;52.306;10.484;2023-04-29T06:42:48;1.30;;;1.30;;
4186;SDS011;2107;52.306;10.484;2023-04-29T06:45:16;1.60;;;1.60;;
4186;SDS011;2107;52.306;10.484;2023-04-29T06:47:43;1.60;;;1.60;;
4186;SDS011;2107;52.306;10.484;2023-04-29T06:50:12;1.60;;;1.60;;
4186;SDS011;2107;52.306;10.484;2023-04-29T06:52:38;1.50;;;1.50;;
4186;SDS011;2107;52.306;10.484;2023-04-29T06:55:05;1.50;;;1.50;;
4186;SDS011;2107;52.306;10.484;2023-04-29T06:57:33;1.20;;;1.20;;
4186;SDS011;2107;52.306;10.484;2023-04-29T07:00:00;1.50;;;1.50;;
4186;SDS011;2107;52.306;10.484;2023-04-29T07:02:28;1.60;;;1.60;;
4186;SDS011;2107;52.306;10.484;2023-04-29T07:04:55;1.27;;;1.27;;
4186;SDS011;2107;52.306;10.484;2023-04-29T07:07:23;1.10;;;1.10;;
4186;SDS011;2107;52.306;10.484;2023-04-29T07:09:50;1.30;;;1.30;;
4186;SDS011;2107;52.306;10.484;2023-04-29T07:12:18;1.40;;;1.40;;
4186;SDS011;2107;52.306;10.484;2023-04-29T07:14:45;1.40;;;1.40;;
4186;SDS011;2107;52.306;10.484;2023-04-29T07:17:11;1.30;;;1.30;;
4186;SDS011;2107;52.306;10.484;2023-04-29T07:19:38;1.60;;;1.60;;
4186;SDS011;2107;52.306;10.484;2023-04-29T07:22:05;1.30;;;1.30;;
4186;SDS011;2107;52.306;10.484;2023-04-29T07:24:33;1.50;;;1.50;;
4186;SDS011;2107;52.306;10.484;2023-04-29T07:27:00;1.60;;;1.60;;
4186;SDS011;2107;52.306;10.484;2023-04-29T07:29:27;1.70;;;1.70;;
4186;SDS011;2107;52.306;10.484;2023-04-29T07:31:54;1.70;;;1.70;;
4186;SDS011;2107;52.306;10.484;2023-04-29T07:34:21;1.80;;;1.80;;
4186;SDS011;2107;52.306;10.484;2023-04-29T07:36:48;1.70;;;1.70;;
4186;SDS011;2107;52.306;10.484;2023-04-29T07:39:15;1.90;;;1.90;;
4186;SDS011;2107;52.306;10.484;2023-04-29T07:41:43;2.10;;;2.10;;
4186;SDS011;2107;52.306;10.484;2023-04-29T07:44:10;1.60;;;1.60;;
4186;SDS011;2107;52.306;10.484;2023-04-29T07:46:37;1.57;;;1.57;;
4186;SDS011;2107;52.306;10.484;2023-04-29T07:49:04;1.40;;;1.40;;
4186;SDS011;2107;52.306;10.484;2023-04-29T07:51:31;1.30;;;1.30;;
4186;SDS011;2107;52.306;10.484;2023-04-29T07:53:58;0.90;;;0.90;;
4186;SDS011;2107;52.306;10.484;2023-04-29T07:56:24;0.80;;;0.80;;
4186;SDS011;2107;52.306;10.484;2023-04-29T07:58:52;0.80;;;0.80;;
4186;SDS011;2107;52.306;10.484;2023-04-29T08:01:19;0.60;;;0.60;;
4186;SDS011;2107;52.306;10.484;2023-04-29T08:03:46;0.70;;;0.70;;
4186;SDS011;2107;52.306;10.484;2023-04-29T08:06:13;0.60;;;0.60;;
4186;SDS011;2107;52.306;10.484;2023-04-29T08:08:40;0.50;;;0.50;;
4186;SDS011;2107;52.306;10.484;2023-04-29T08:11:08;0.50;;;0.50;;
4186;SDS011;2107;52.306;10.484;2023-04-29T08:13:41;0.70;;;0.70;;
4186;SDS011;2107;52.306;10.484;2023-04-29T08:16:09;0.70;;;0.70;;
4186;SDS011;2107;52.306;10.484;2023-04-29T08:18:36;0.80;;;0.80;;
4186;SDS011;2107;52.306;10.484;2023-04-29T08:21:03;0.70;;;0.70;;
4186;SDS011;2107;52.306;10.484;2023-04-29T08:23:30;0.70;;;0.70;;
4186;SDS011;2107;52.306;10.484;2023-04-29T08:25:57;0.50;;;0.50;;
4186;SDS011;2107;52.306;10.484;2023-04-29T08:28:24;0.70;;;0.70;;
4186;SDS011;2107;52.306;10.484;2023-04-29T08:30:51;0.60;;;0.60;;
4186;SDS011;2107;52.306;10.484;2023-04-29T08:33:19;0.70;;;0.70;;
4186;SDS011;2107;52.306;10.484;2023-04-29T08:35:46;0.60;;;0.60;;
4186;SDS011;2107;52.306;10.484;2023-04-29T08:38:13;0.60;;;0.60;;
4186;SDS011;2107;52.306;10.484;2023-04-29T08:40:44;0.60;;;0.60;;
4186;SDS011;2107;52.306;10.484;2023-04-29T08:43:12;0.63;;;0.63;;
4186;SDS011;2107;52.306;10.484;2023-04-29T08:45:39;0.60;;;0.60;;
4186;SDS011;2107;52.306;10.484;2023-04-29T08:48:07;0.60;;;0.60;;
4186;SDS011;2107;52.306;10.484;2023-04-29T08:50:36;0.50;;;0.50;;
4186;SDS011;2107;52.306;10.484;2023-04-29T08:53:06;0.60;;;0.60;;
4186;SDS011;2107;52.306;10.484;2023-04-29T08:55:33;0.40;;;0.40;;
4186;SDS011;2107;52.306;10.484;2023-04-29T08:58:02;0.50;;;0.50;;
4186;SDS011;2107;52.306;10.484;2023-04-29T09:00:29;0.50;;;0.50;;
4186;SDS011;2107;52.306;10.484;2023-04-29T09:02:57;0.63;;;0.63;;
4186;SDS011;2107;52.306;10.484;2023-04-29T09:05:29;0.60;;;0.60;;
4186;SDS011;2107;52.306;10.484;2023-04-29T09:08:01;0.43;;;0.43;;
4186;SDS011;2107;52.306;10.484;2023-04-29T09:10:29;0.50;;;0.50;;
4186;SDS011;2107;52.306;10.484;2023-04-29T09:12:57;0.50;;;0.50;;
4186;SDS011;2107;52.306;10.484;2023-04-29T09:15:24;0.40;;;0.40;;
4186;SDS011;2107;52.306;10.484;2023-04-29T09:17:50;0.50;;;0.50;;
4186;SDS011;2107;52.306;10.484;2023-04-29T09:20:30;0.60;;;0.60;;
4186;SDS011;2107;52.306;10.484;2023-04-29T09:22:57;0.50;;;0.50;;
4186;SDS011;2107;52.306;10.484;2023-04-29T09:25:26;0.60;;;0.60;;
4186;SDS011;2107;52.306;10.484;2023-04-29T09:27:54;0.63;;;0.63;;
4186;SDS011;2107;52.306;10.484;2023-04-29T09:30:21;0.63;;;0.63;;
4186;SDS011;2107;52.306;10.484;2023-04-29T09:33:04;0.80;;;0.80;;
4186;SDS011;2107;52.306;10.484;2023-04-29T09:35:32;0.73;;;0.73;;
4186;SDS011;2107;52.306;10.484;2023-04-29T09:38:10;0.90;;;0.90;;
4186;SDS011;2107;52.306;10.484;2023-04-29T09:40:39;0.60;;;0.60;;
4186;SDS011;2107;52.306;10.484;2023-04-29T09:43:10;0.50;;;0.50;;
4186;SDS011;2107;52.306;10.484;2023-04-29T09:45:39;0.40;;;0.40;;
4186;SDS011;2107;52.306;10.484;2023-04-29T09:48:08;0.50;;;0.50;;
4186;SDS011;2107;52.306;10.484;2023-04-29T09:50:36;0.50;;;0.50;;
4186;SDS011;2107;52.306;10.484;2023-04-29T09:53:03;0.53;;;0.53;;
4186;SDS011;2107;52.306;10.484;2023-04-29T09:55:30;0.40;;;0.40;;
4186;SDS011;2107;52.306;10.484;2023-04-29T09:57:58;0.50;;;0.50;;
4186;SDS011;2107;52.306;10.484;2023-04-29T10:00:26;0.50;;;0.50;;
4186;SDS011;2107;52.306;10.484;2023-04-29T10:02:57;0.50;;;0.50;;
4186;SDS011;2107;52.306;10.484;2023-04-29T10:05:26;0.40;;;0.40;;
4186;SDS011;2107;52.306;10.484;2023-04-29T10:07:57;0.40;;;0.40;;
4186;SDS011;2107;52.306;10.484;2023-04-29T10:10:24;0.40;;;0.40;;
4186;SDS011;2107;52.306;10.484;2023-04-29T10:12:53;0.50;;;0.50;;
4186;SDS011;2107;52.306;10.484;2023-04-29T10:15:25;0.40;;;0.40;;
4186;SDS011;2107;52.306;10.484;2023-04-29T10:17:56;0.40;;;0.40;;
4186;SDS011;2107;52.306;10.484;2023-04-29T10:20:28;0.37;;;0.37;;
4186;SDS011;2107;52.306;10.484;2023-04-29T10:22:55;0.50;;;0.50;;
4186;SDS011;2107;52.306;10.484;2023-04-29T10:25:25;0.40;;;0.40;;
4186;SDS011;2107;52.306;10.484;2023-04-29T10:27:53;0.50;;;0.50;;
4186;SDS011;2107;52.306;10.484;2023-04-29T10:30:21;0.50;;;0.50;;
4186;SDS011;2107;52.306;10.484;2023-04-29T10:32:49;0.60;;;0.60;;
4186;SDS011;2107;52.306;10.484;2023-04-29T10:35:17;0.50;;;0.50;;
4186;SDS011;2107;52.306;10.484;2023-04-29T10:37:47;0.60;;;0.60;;
4186;SDS011;2107;52.306;10.484;2023-04-29T10:40:14;0.50;;;0.50;;
4186;SDS011;2107;52.306;10.484;2023-04-29T10:42:46;0.40;;;0.40;;
4186;SDS011;2107;52.306;10.484;2023-04-29T10:45:20;0.40;;;0.40;;
4186;SDS011;2107;52.306;10.484;2023-04-29T10:48:13;0.30;;;0.30;;
4186;SDS011;2107;52.306;10.484;2023-04-29T10:50:59;0.57;;;0.57;;
4186;SDS011;2107;52.306;10.484;2023-04-29T10:53:27;0.50;;;0.50;;
4186;SDS011;2107;52.306;10.484;2023-04-29T10:55:56;0.43;;;0.43;;
4186;SDS011;2107;52.306;10.484;2023-04-29T10:58:33;0.47;;;0.47;;
4186;SDS011;2107;52.306;10.484;2023-04-29T11:01:11;0.60;;;0.60;;
4186;SDS011;2107;52.306;10.484;2023-04-29T11:03:49;0.40;;;0.40;;
4186;SDS011;2107;52.306;10.484;2023-04-29T11:06:22;0.37;;;0.37;;
4186;SDS011;2107;52.306;10.484;2023-04-29T11:09:00;0.40;;;0.40;;
4186;SDS011;2107;52.306;10.484;2023-04-29T11:14:24;0.20;;;0.20;;
4186;SDS011;2107;52.306;10.484;2023-04-29T11:16:55;0.20;;;0.20;;
4186;SDS011;2107;52.306;10.484;2023-04-29T11:19:24;0.20;;;0.20;;
4186;SDS011;2107;52.306;10.484;2023-04-29T11:22:08;0.30;;;0.30;;
4186;SDS011;2107;52.306;10.484;2023-04-29T11:24:49;0.30;;;0.30;;
4186;SDS011;2107;52.306;10.484;2023-04-29T11:27:17;0.40;;;0.40;;
4186;SDS011;2107;52.306;10.484;2023-04-29T11:29:49;0.30;;;0.30;;
4186;SDS011;2107;52.306;10.484;2023-04-29T11:32:20;0.50;;;0.50;;
4186;SDS011;2107;52.306;10.484;2023-04-29T11:34:48;0.43;;;0.43;;
4186;SDS011;2107;52.306;10.484;2023-04-29T11:37:18;0.50;;;0.50;;
4186;SDS011;2107;52.306;10.484;2023-04-29T11:39:47;0.40;;;0.40;;
4186;SDS011;2107;52.306;10.484;2023-04-29T11:42:18;0.40;;;0.40;;
4186;SDS011;2107;52.306;10.484;2023-04-29T11:44:45;0.57;;;0.57;;
4186;SDS011;2107;52.306;10.484;2023-04-29T11:47:13;0.53;;;0.53;;
4186;SDS011;2107;52.306;10.484;2023-04-29T11:49:41;0.70;;;0.70;;
4186;SDS011;2107;52.306;10.484;2023-04-29T11:52:08;0.60;;;0.60;;
4186;SDS011;2107;52.306;10.484;2023-04-29T11:54:35;0.50;;;0.50;;
4186;SDS011;2107;52.306;10.484;2023-04-29T11:57:02;0.60;;;0.60;;
4186;SDS011;2107;52.306;10.484;2023-04-29T11:59:30;0.50;;;0.50;;
4186;SDS011;2107;52.306;10.484;2023-04-29T12:01:57;0.60;;;0.60;;
4186;SDS011;2107;52.306;10.484;2023-04-29T12:04:25;0.60;;;0.60;;
4186;SDS011;2107;52.306;10.484;2023-04-29T12:06:55;0.50;;;0.50;;
4186;SDS011;2107;52.306;10.484;2023-04-29T12:09:23;0.60;;;0.60;;
4186;SDS011;2107;52.306;10.484;2023-04-29T12:11:51;0.57;;;0.57;;
4186;SDS011;2107;52.306;10.484;2023-04-29T12:14:18;0.70;;;0.70;;
4186;SDS011;2107;52.306;10.484;2023-04-29T12:16:45;0.83;;;0.83;;
4186;SDS011;2107;52.306;10.484;2023-04-29T12:19:12;0.80;;;0.80;;
4186;SDS011;2107;52.306;10.484;2023-04-29T12:21:47;0.70;;;0.70;;
4186;SDS011;2107;52.306;10.484;2023-04-29T12:24:19;0.70;;;0.70;;
4186;SDS011;2107;52.306;10.484;2023-04-29T12:26:46;0.60;;;0.60;;
4186;SDS011;2107;52.306;10.484;2023-04-29T12:29:14;0.50;;;0.50;;
4186;SDS011;2107;52.306;10.484;2023-04-29T12:31:41;0.50;;;0.50;;
4186;SDS011;2107;52.306;10.484;2023-04-29T12:34:08;0.50;;;0.50;;
4186;SDS011;2107;52.306;10.484;2023-04-29T12:36:35;0.60;;;0.60;;
4186;SDS011;2107;52.306;10.484;2023-04-29T12:39:04;0.50;;;0.50;;
4186;SDS011;2107;52.306;10.484;2023-04-29T12:41:39;0.50;;;0.50;;
4186;SDS011;2107;52.306;10.484;2023-04-29T12:44:06;0.60;;;0.60;;
4186;SDS011;2107;52.306;10.484;2023-04-29T12:46:35;0.83;;;0.83;;
4186;SDS011;2107;52.306;10.484;2023-04-29T12:49:02;0.70;;;0.70;;
4186;SDS011;2107;52.306;10.484;2023-04-29T12:51:30;0.50;;;0.50;;
4186;SDS011;2107;52.306;10.484;2023-04-29T12:53:57;0.50;;;0.50;;
4186;SDS011;2107;52.306;10.484;2023-04-29T12:56:25;0.50;;;0.50;;
4186;SDS011;2107;52.306;10.484;2023-04-29T12:58:53;0.50;;;0.50;;
4186;SDS011;2107;52.306;10.484;2023-04-29T13:01:20;0.60;;;0.60;;
4186;SDS011;2107;52.306;10.484;2023-04-29T13:03:47;0.60;;;0.60;;
4186;SDS011;2107;52.306;10.484;2023-04-29T13:06:15;0.63;;;0.63;;
4186;SDS011;2107;52.306;10.484;2023-04-29T13:08:43;0.60;;;0.60;;
4186;SDS011;2107;52.306;10.484;2023-04-29T13:11:09;0.70;;;0.70;;
4186;SDS011;2107;52.306;10.484;2023-04-29T13:13:37;0.70;;;0.70;;
4186;SDS011;2107;52.306;10.484;2023-04-29T13:16:06;0.70;;;0.70;;
4186;SDS011;2107;52.306;10.484;2023-04-29T13:18:33;0.70;;;0.70;;
4186;SDS011;2107;52.306;10.484;2023-04-29T13:21:00;0.70;;;0.70;;
4186;SDS011;2107;52.306;10.484;2023-04-29T13:23:27;0.70;;;0.70;;
4186;SDS011;2107;52.306;10.484;2023-04-29T13:25:54;0.80;;;0.80;;
4186;SDS011;2107;52.306;10.484;2023-04-29T13:28:21;0.73;;;0.73;;
4186;SDS011;2107;52.306;10.484;2023-04-29T13:30:48;0.87;;;0.87;;
4186;SDS011;2107;52.306;10.484;2023-04-29T13:33:16;0.80;;;0.80;;
4186;SDS011;2107;52.306;10.484;2023-04-29T13:35:44;0.80;;;0.80;;
4186;SDS011;2107;52.306;10.484;2023-04-29T13:38:13;0.80;;;0.80;;
4186;SDS011;2107;52.306;10.484;2023-04-29T13:40:41;0.50;;;0.50;;
4186;SDS011;2107;52.306;10.484;2023-04-29T13:43:08;0.70;;;0.70;;
4186;SDS011;2107;52.306;10.484;2023-04-29T13:45:35;0.90;;;0.90;;
4186;SDS011;2107;52.306;10.484;2023-04-29T13:48:02;1.30;;;1.30;;
4186;SDS011;2107;52.306;10.484;2023-04-29T13:50:30;1.70;;;1.70;;
4186;SDS011;2107;52.306;10.484;2023-04-29T13:52:57;1.30;;;1.30;;
4186;SDS011;2107;52.306;10.484;2023-04-29T13:55:24;1.40;;;1.40;;
4186;SDS011;2107;52.306;10.484;2023-04-29T13:57:52;1.50;;;1.50;;
4186;SDS011;2107;52.306;10.484;2023-04-29T14:00:19;1.40;;;1.40;;
4186;SDS011;2107;52.306;10.484;2023-04-29T14:02:46;1.20;;;1.20;;
4186;SDS011;2107;52.306;10.484;2023-04-29T14:05:12;1.30;;;1.30;;
4186;SDS011;2107;52.306;10.484;2023-04-29T14:07:41;1.20;;;1.20;;
4186;SDS011;2107;52.306;10.484;2023-04-29T14:10:08;1.30;;;1.30;;
4186;SDS011;2107;52.306;10.484;2023-04-29T14:12:35;1.20;;;1.20;;
4186;SDS011;2107;52.306;10.484;2023-04-29T14:15:02;1.33;;;1.33;;
4186;SDS011;2107;52.306;10.484;2023-04-29T14:17:29;1.20;;;1.20;;
4186;SDS011;2107;52.306;10.484;2023-04-29T14:19:56;1.13;;;1.13;;
4186;SDS011;2107;52.306;10.484;2023-04-29T14:22:23;1.20;;;1.20;;
4186;SDS011;2107;52.306;10.484;2023-04-29T14:24:52;1.60;;;1.60;;
4186;SDS011;2107;52.306;10.484;2023-04-29T14:27:19;1.50;;;1.50;;
4186;SDS011;2107;52.306;10.484;2023-04-29T14:29:46;1.53;;;1.53;;
4186;SDS011;2107;52.306;10.484;2023-04-29T14:32:13;1.50;;;1.50;;
4186;SDS011;2107;52.306;10.484;2023-04-29T14:34:40;1.40;;;1.40;;
4186;SDS011;2107;52.306;10.484;2023-04-29T14:37:07;1.00;;;1.00;;
4186;SDS011;2107;52.306;10.484;2023-04-29T14:39:34;1.00;;;1.00;;
4186;SDS011;2107;52.306;10.484;2023-04-29T14:42:02;0.77;;;0.77;;
4186;SDS011;2107;52.306;10.484;2023-04-29T14:44:29;0.70;;;0.70;;
4186;SDS011;2107;52.306;10.484;2023-04-29T14:46:56;0.60;;;0.60;;
4186;SDS011;2107;52.306;10.484;2023-04-29T14:49:23;0.70;;;0.70;;
4186;SDS011;2107;52.306;10.484;2023-04-29T14:51:50;0.80;;;0.80;;
4186;SDS011;2107;52.306;10.484;2023-04-29T14:54:16;1.10;;;1.10;;
4186;SDS011;2107;52.306;10.484;2023-04-29T14:56:43;1.20;;;1.20;;
4186;SDS011;2107;52.306;10.484;2023-04-29T14:59:11;1.10;;;1.10;;
4186;SDS011;2107;52.306;10.484;2023-04-29T15:01:38;1.20;;;1.20;;
4186;SDS011;2107;52.306;10.484;2023-04-29T15:04:05;1.10;;;1.10;;
4186;SDS011;2107;52.306;10.484;2023-04-29T15:06:32;1.30;;;1.30;;
4186;SDS011;2107;52.306;10.484;2023-04-29T15:08:59;1.00;;;1.00;;